Terminal Aerodrome Forecast
Issued by NWS

Home | Current Version | Previous Version | Text Only | Print | Product List | Glossary On
Versions: 1 2 3 4 5 6 7 8 9 10 11 12 13 14 15 16 17 18 19 20 21 22 23
000
FTUS46 KOTX 301720
TAFMWH
TAF
KMWH 301720Z 3018/3118 23011G16KT P6SM FEW080 SCT150 BKN200
     FM310000 27013G18KT P6SM SCT070 BKN100
     FM310500 25008KT P6SM BKN100
     FM310900 23005KT P6SM SCT100 SCT200=

USA.gov is the U.S. government's official web portal to all federal, state and local government web resources and services.